sensor_id;sensor_type;location;lat;lon;timestamp;P1;durP1;ratioP1;P2;durP2;ratioP2
16504;SDS011;8365;51.030;4.696;2024-01-16T00:01:00;12.07;;;5.67;;
16504;SDS011;8365;51.030;4.696;2024-01-16T00:03:33;8.43;;;4.77;;
16504;SDS011;8365;51.030;4.696;2024-01-16T00:06:03;10.40;;;5.50;;
16504;SDS011;8365;51.030;4.696;2024-01-16T00:08:34;7.70;;;5.70;;
16504;SDS011;8365;51.030;4.696;2024-01-16T00:11:04;8.80;;;5.27;;
16504;SDS011;8365;51.030;4.696;2024-01-16T00:13:35;11.10;;;5.03;;
16504;SDS011;8365;51.030;4.696;2024-01-16T00:16:05;12.27;;;5.20;;
16504;SDS011;8365;51.030;4.696;2024-01-16T00:18:36;7.20;;;4.87;;
16504;SDS011;8365;51.030;4.696;2024-01-16T00:21:09;5.33;;;4.63;;
16504;SDS011;8365;51.030;4.696;2024-01-16T00:23:39;10.73;;;5.30;;
16504;SDS011;8365;51.030;4.696;2024-01-16T00:26:21;11.90;;;5.83;;
16504;SDS011;8365;51.030;4.696;2024-01-16T00:28:52;9.23;;;5.67;;
16504;SDS011;8365;51.030;4.696;2024-01-16T00:31:23;11.77;;;5.63;;
16504;SDS011;8365;51.030;4.696;2024-01-16T00:33:56;11.77;;;5.90;;
16504;SDS011;8365;51.030;4.696;2024-01-16T00:36:26;15.20;;;6.43;;
16504;SDS011;8365;51.030;4.696;2024-01-16T00:38:57;12.27;;;6.03;;
16504;SDS011;8365;51.030;4.696;2024-01-16T00:41:27;8.40;;;5.43;;
16504;SDS011;8365;51.030;4.696;2024-01-16T00:43:58;9.33;;;5.60;;
16504;SDS011;8365;51.030;4.696;2024-01-16T00:46:28;9.47;;;5.17;;
16504;SDS011;8365;51.030;4.696;2024-01-16T00:48:59;11.30;;;6.00;;
16504;SDS011;8365;51.030;4.696;2024-01-16T00:51:29;9.50;;;5.63;;
16504;SDS011;8365;51.030;4.696;2024-01-16T00:54:00;12.73;;;4.93;;
16504;SDS011;8365;51.030;4.696;2024-01-16T00:56:30;9.63;;;4.70;;
16504;SDS011;8365;51.030;4.696;2024-01-16T00:59:03;7.30;;;4.67;;
16504;SDS011;8365;51.030;4.696;2024-01-16T01:01:33;14.17;;;5.77;;
16504;SDS011;8365;51.030;4.696;2024-01-16T01:04:07;16.23;;;5.70;;
16504;SDS011;8365;51.030;4.696;2024-01-16T01:06:37;9.70;;;5.43;;
16504;SDS011;8365;51.030;4.696;2024-01-16T01:09:08;10.47;;;5.43;;
16504;SDS011;8365;51.030;4.696;2024-01-16T01:11:41;13.53;;;6.27;;
16504;SDS011;8365;51.030;4.696;2024-01-16T01:14:13;11.23;;;5.63;;
16504;SDS011;8365;51.030;4.696;2024-01-16T01:16:43;11.70;;;6.17;;
16504;SDS011;8365;51.030;4.696;2024-01-16T01:19:14;13.93;;;6.00;;
16504;SDS011;8365;51.030;4.696;2024-01-16T01:21:44;15.43;;;5.37;;
16504;SDS011;8365;51.030;4.696;2024-01-16T01:24:15;8.70;;;4.77;;
16504;SDS011;8365;51.030;4.696;2024-01-16T01:26:45;10.97;;;4.90;;
16504;SDS011;8365;51.030;4.696;2024-01-16T01:29:18;9.37;;;5.20;;
16504;SDS011;8365;51.030;4.696;2024-01-16T01:31:49;12.67;;;5.00;;
16504;SDS011;8365;51.030;4.696;2024-01-16T01:34:19;9.90;;;4.97;;
16504;SDS011;8365;51.030;4.696;2024-01-16T01:36:50;8.47;;;4.57;;
16504;SDS011;8365;51.030;4.696;2024-01-16T01:39:20;11.00;;;4.73;;
16504;SDS011;8365;51.030;4.696;2024-01-16T01:41:51;10.63;;;4.97;;
16504;SDS011;8365;51.030;4.696;2024-01-16T01:44:21;9.00;;;4.40;;
16504;SDS011;8365;51.030;4.696;2024-01-16T01:46:53;7.43;;;4.30;;
16504;SDS011;8365;51.030;4.696;2024-01-16T01:49:25;9.57;;;4.50;;
16504;SDS011;8365;51.030;4.696;2024-01-16T01:51:56;11.57;;;5.37;;
16504;SDS011;8365;51.030;4.696;2024-01-16T01:54:26;9.20;;;4.53;;
16504;SDS011;8365;51.030;4.696;2024-01-16T01:56:57;7.90;;;4.53;;
16504;SDS011;8365;51.030;4.696;2024-01-16T01:59:29;7.73;;;5.10;;
16504;SDS011;8365;51.030;4.696;2024-01-16T02:02:00;10.93;;;4.53;;
16504;SDS011;8365;51.030;4.696;2024-01-16T02:04:32;8.30;;;4.77;;
16504;SDS011;8365;51.030;4.696;2024-01-16T02:07:04;11.63;;;4.60;;
16504;SDS011;8365;51.030;4.696;2024-01-16T02:09:34;9.00;;;4.53;;
16504;SDS011;8365;51.030;4.696;2024-01-16T02:12:05;12.63;;;5.27;;
16504;SDS011;8365;51.030;4.696;2024-01-16T02:14:37;9.83;;;4.10;;
16504;SDS011;8365;51.030;4.696;2024-01-16T02:17:07;12.63;;;4.77;;
16504;SDS011;8365;51.030;4.696;2024-01-16T02:19:38;9.63;;;4.33;;
16504;SDS011;8365;51.030;4.696;2024-01-16T02:22:09;9.43;;;4.00;;
16504;SDS011;8365;51.030;4.696;2024-01-16T02:24:45;8.43;;;4.40;;
16504;SDS011;8365;51.030;4.696;2024-01-16T02:27:16;10.53;;;4.40;;
16504;SDS011;8365;51.030;4.696;2024-01-16T02:29:47;10.37;;;4.50;;
16504;SDS011;8365;51.030;4.696;2024-01-16T02:32:17;7.87;;;4.63;;
16504;SDS011;8365;51.030;4.696;2024-01-16T02:34:48;9.20;;;4.30;;
16504;SDS011;8365;51.030;4.696;2024-01-16T02:37:18;7.60;;;4.50;;
16504;SDS011;8365;51.030;4.696;2024-01-16T02:39:49;10.87;;;4.50;;
16504;SDS011;8365;51.030;4.696;2024-01-16T02:42:19;6.83;;;4.10;;
16504;SDS011;8365;51.030;4.696;2024-01-16T02:44:50;8.47;;;4.50;;
16504;SDS011;8365;51.030;4.696;2024-01-16T02:47:20;12.63;;;4.23;;
16504;SDS011;8365;51.030;4.696;2024-01-16T02:49:51;16.27;;;4.97;;
16504;SDS011;8365;51.030;4.696;2024-01-16T02:52:22;6.47;;;4.10;;
16504;SDS011;8365;51.030;4.696;2024-01-16T02:54:53;7.30;;;4.13;;
16504;SDS011;8365;51.030;4.696;2024-01-16T02:57:24;10.37;;;4.60;;
16504;SDS011;8365;51.030;4.696;2024-01-16T02:59:54;8.93;;;4.67;;
16504;SDS011;8365;51.030;4.696;2024-01-16T03:02:24;11.17;;;5.10;;
16504;SDS011;8365;51.030;4.696;2024-01-16T03:04:55;7.83;;;3.93;;
16504;SDS011;8365;51.030;4.696;2024-01-16T03:07:26;9.40;;;4.17;;
16504;SDS011;8365;51.030;4.696;2024-01-16T03:09:56;9.77;;;4.87;;
16504;SDS011;8365;51.030;4.696;2024-01-16T03:12:27;12.20;;;6.20;;
16504;SDS011;8365;51.030;4.696;2024-01-16T03:14:57;10.30;;;4.53;;
16504;SDS011;8365;51.030;4.696;2024-01-16T03:17:28;8.20;;;4.17;;
16504;SDS011;8365;51.030;4.696;2024-01-16T03:19:58;9.77;;;4.43;;
16504;SDS011;8365;51.030;4.696;2024-01-16T03:22:29;6.87;;;4.27;;
16504;SDS011;8365;51.030;4.696;2024-01-16T03:24:59;5.87;;;4.60;;
16504;SDS011;8365;51.030;4.696;2024-01-16T03:27:32;10.23;;;4.50;;
16504;SDS011;8365;51.030;4.696;2024-01-16T03:30:03;11.00;;;5.87;;
16504;SDS011;8365;51.030;4.696;2024-01-16T03:32:37;10.87;;;4.33;;
16504;SDS011;8365;51.030;4.696;2024-01-16T03:35:08;6.40;;;4.20;;
16504;SDS011;8365;51.030;4.696;2024-01-16T03:37:38;10.57;;;4.93;;
16504;SDS011;8365;51.030;4.696;2024-01-16T03:40:09;9.47;;;4.33;;
16504;SDS011;8365;51.030;4.696;2024-01-16T03:42:42;8.13;;;5.00;;
16504;SDS011;8365;51.030;4.696;2024-01-16T03:45:13;9.97;;;4.70;;
16504;SDS011;8365;51.030;4.696;2024-01-16T03:47:43;8.93;;;4.67;;
16504;SDS011;8365;51.030;4.696;2024-01-16T03:50:15;8.13;;;4.43;;
16504;SDS011;8365;51.030;4.696;2024-01-16T03:52:45;12.23;;;5.00;;
16504;SDS011;8365;51.030;4.696;2024-01-16T03:55:16;12.97;;;4.77;;
16504;SDS011;8365;51.030;4.696;2024-01-16T03:57:46;9.87;;;4.67;;
16504;SDS011;8365;51.030;4.696;2024-01-16T04:00:17;8.17;;;3.97;;
16504;SDS011;8365;51.030;4.696;2024-01-16T04:02:47;10.10;;;4.20;;
16504;SDS011;8365;51.030;4.696;2024-01-16T04:05:18;11.77;;;4.33;;
16504;SDS011;8365;51.030;4.696;2024-01-16T04:07:48;9.40;;;4.90;;
16504;SDS011;8365;51.030;4.696;2024-01-16T04:10:19;10.07;;;5.20;;
16504;SDS011;8365;51.030;4.696;2024-01-16T04:12:49;9.53;;;4.87;;
16504;SDS011;8365;51.030;4.696;2024-01-16T04:15:20;11.33;;;5.10;;
16504;SDS011;8365;51.030;4.696;2024-01-16T04:17:50;10.07;;;5.17;;
16504;SDS011;8365;51.030;4.696;2024-01-16T04:20:21;9.77;;;5.20;;
16504;SDS011;8365;51.030;4.696;2024-01-16T04:22:54;11.40;;;5.30;;
16504;SDS011;8365;51.030;4.696;2024-01-16T04:25:24;8.27;;;5.23;;
16504;SDS011;8365;51.030;4.696;2024-01-16T04:27:55;9.13;;;5.50;;
16504;SDS011;8365;51.030;4.696;2024-01-16T04:30:25;8.73;;;5.23;;
16504;SDS011;8365;51.030;4.696;2024-01-16T04:32:56;13.17;;;5.47;;
16504;SDS011;8365;51.030;4.696;2024-01-16T04:35:26;9.90;;;5.13;;
16504;SDS011;8365;51.030;4.696;2024-01-16T04:37:59;11.47;;;5.97;;
16504;SDS011;8365;51.030;4.696;2024-01-16T04:40:33;10.57;;;5.60;;
16504;SDS011;8365;51.030;4.696;2024-01-16T04:43:03;12.57;;;5.77;;
16504;SDS011;8365;51.030;4.696;2024-01-16T04:45:34;10.60;;;5.50;;
16504;SDS011;8365;51.030;4.696;2024-01-16T04:48:04;9.30;;;5.60;;
16504;SDS011;8365;51.030;4.696;2024-01-16T04:50:35;11.47;;;6.07;;
16504;SDS011;8365;51.030;4.696;2024-01-16T04:53:05;12.10;;;5.73;;
16504;SDS011;8365;51.030;4.696;2024-01-16T04:55:36;14.87;;;6.10;;
16504;SDS011;8365;51.030;4.696;2024-01-16T04:58:06;12.07;;;5.90;;
16504;SDS011;8365;51.030;4.696;2024-01-16T05:00:37;9.27;;;6.10;;
16504;SDS011;8365;51.030;4.696;2024-01-16T05:03:08;11.57;;;6.17;;
16504;SDS011;8365;51.030;4.696;2024-01-16T05:05:38;9.13;;;5.20;;
16504;SDS011;8365;51.030;4.696;2024-01-16T05:08:09;10.77;;;5.80;;
16504;SDS011;8365;51.030;4.696;2024-01-16T05:10:40;12.90;;;6.70;;
16504;SDS011;8365;51.030;4.696;2024-01-16T05:13:10;13.80;;;5.90;;
16504;SDS011;8365;51.030;4.696;2024-01-16T05:15:42;11.33;;;6.27;;
16504;SDS011;8365;51.030;4.696;2024-01-16T05:18:12;9.97;;;5.77;;
16504;SDS011;8365;51.030;4.696;2024-01-16T05:20:43;8.83;;;5.70;;
16504;SDS011;8365;51.030;4.696;2024-01-16T05:23:13;11.33;;;5.43;;
16504;SDS011;8365;51.030;4.696;2024-01-16T05:25:44;9.30;;;5.87;;
16504;SDS011;8365;51.030;4.696;2024-01-16T05:28:14;9.43;;;5.87;;
16504;SDS011;8365;51.030;4.696;2024-01-16T05:30:47;11.70;;;5.77;;
16504;SDS011;8365;51.030;4.696;2024-01-16T05:33:18;12.63;;;6.27;;
16504;SDS011;8365;51.030;4.696;2024-01-16T05:35:48;11.63;;;6.40;;
16504;SDS011;8365;51.030;4.696;2024-01-16T05:38:19;11.23;;;5.97;;
16504;SDS011;8365;51.030;4.696;2024-01-16T05:40:49;9.40;;;5.30;;
16504;SDS011;8365;51.030;4.696;2024-01-16T05:43:20;11.00;;;5.70;;
16504;SDS011;8365;51.030;4.696;2024-01-16T05:45:50;10.13;;;5.27;;
16504;SDS011;8365;51.030;4.696;2024-01-16T05:48:23;9.97;;;5.33;;
16504;SDS011;8365;51.030;4.696;2024-01-16T05:50:53;9.63;;;5.60;;
16504;SDS011;8365;51.030;4.696;2024-01-16T05:53:23;13.17;;;5.63;;
16504;SDS011;8365;51.030;4.696;2024-01-16T05:55:54;11.07;;;5.97;;
16504;SDS011;8365;51.030;4.696;2024-01-16T05:58:24;14.57;;;6.23;;
16504;SDS011;8365;51.030;4.696;2024-01-16T06:00:55;9.37;;;5.80;;
16504;SDS011;8365;51.030;4.696;2024-01-16T06:03:25;10.40;;;6.07;;
16504;SDS011;8365;51.030;4.696;2024-01-16T06:06:00;11.40;;;6.33;;
16504;SDS011;8365;51.030;4.696;2024-01-16T06:08:31;12.50;;;6.43;;
16504;SDS011;8365;51.030;4.696;2024-01-16T06:11:01;9.73;;;6.17;;
16504;SDS011;8365;51.030;4.696;2024-01-16T06:13:32;14.33;;;6.17;;
16504;SDS011;8365;51.030;4.696;2024-01-16T06:16:03;8.43;;;5.53;;
16504;SDS011;8365;51.030;4.696;2024-01-16T06:18:35;12.10;;;6.17;;
16504;SDS011;8365;51.030;4.696;2024-01-16T06:21:06;11.67;;;6.03;;
16504;SDS011;8365;51.030;4.696;2024-01-16T06:23:36;10.20;;;6.57;;
16504;SDS011;8365;51.030;4.696;2024-01-16T06:26:07;13.00;;;6.50;;
16504;SDS011;8365;51.030;4.696;2024-01-16T06:28:38;11.73;;;7.03;;
16504;SDS011;8365;51.030;4.696;2024-01-16T06:31:10;11.00;;;5.93;;
16504;SDS011;8365;51.030;4.696;2024-01-16T06:33:40;12.87;;;7.13;;
16504;SDS011;8365;51.030;4.696;2024-01-16T06:36:11;12.77;;;7.20;;
16504;SDS011;8365;51.030;4.696;2024-01-16T06:38:41;12.80;;;6.73;;
16504;SDS011;8365;51.030;4.696;2024-01-16T06:41:12;13.37;;;7.20;;
16504;SDS011;8365;51.030;4.696;2024-01-16T06:43:42;12.67;;;7.07;;
16504;SDS011;8365;51.030;4.696;2024-01-16T06:46:13;12.77;;;6.40;;
16504;SDS011;8365;51.030;4.696;2024-01-16T06:48:43;14.67;;;7.07;;
16504;SDS011;8365;51.030;4.696;2024-01-16T06:51:14;12.10;;;6.33;;
16504;SDS011;8365;51.030;4.696;2024-01-16T06:53:45;13.30;;;6.80;;
16504;SDS011;8365;51.030;4.696;2024-01-16T06:56:16;10.43;;;6.33;;
16504;SDS011;8365;51.030;4.696;2024-01-16T06:58:46;12.67;;;6.30;;
16504;SDS011;8365;51.030;4.696;2024-01-16T07:01:17;9.33;;;6.23;;
16504;SDS011;8365;51.030;4.696;2024-01-16T07:03:48;11.87;;;6.30;;
16504;SDS011;8365;51.030;4.696;2024-01-16T07:06:19;10.13;;;6.50;;
16504;SDS011;8365;51.030;4.696;2024-01-16T07:08:49;12.17;;;7.33;;
16504;SDS011;8365;51.030;4.696;2024-01-16T07:11:20;11.37;;;6.10;;
16504;SDS011;8365;51.030;4.696;2024-01-16T07:13:51;12.40;;;6.50;;
16504;SDS011;8365;51.030;4.696;2024-01-16T07:16:21;10.80;;;6.20;;
16504;SDS011;8365;51.030;4.696;2024-01-16T07:18:52;9.43;;;5.83;;
16504;SDS011;8365;51.030;4.696;2024-01-16T07:21:23;11.37;;;6.57;;
16504;SDS011;8365;51.030;4.696;2024-01-16T07:23:54;9.07;;;6.37;;
16504;SDS011;8365;51.030;4.696;2024-01-16T07:26:25;12.03;;;6.50;;
16504;SDS011;8365;51.030;4.696;2024-01-16T07:28:55;11.47;;;5.97;;
16504;SDS011;8365;51.030;4.696;2024-01-16T07:31:26;8.60;;;5.93;;
16504;SDS011;8365;51.030;4.696;2024-01-16T07:33:56;12.40;;;6.50;;
16504;SDS011;8365;51.030;4.696;2024-01-16T07:36:27;12.80;;;6.47;;
16504;SDS011;8365;51.030;4.696;2024-01-16T07:38:57;11.77;;;6.73;;
16504;SDS011;8365;51.030;4.696;2024-01-16T07:41:28;11.07;;;6.70;;
16504;SDS011;8365;51.030;4.696;2024-01-16T07:43:58;10.00;;;6.60;;
16504;SDS011;8365;51.030;4.696;2024-01-16T07:46:28;10.80;;;6.57;;
16504;SDS011;8365;51.030;4.696;2024-01-16T07:48:59;7.63;;;5.67;;
16504;SDS011;8365;51.030;4.696;2024-01-16T07:51:29;10.83;;;6.40;;
16504;SDS011;8365;51.030;4.696;2024-01-16T07:54:07;9.37;;;5.83;;
16504;SDS011;8365;51.030;4.696;2024-01-16T07:56:40;11.37;;;6.67;;
16504;SDS011;8365;51.030;4.696;2024-01-16T07:59:11;10.97;;;6.10;;
16504;SDS011;8365;51.030;4.696;2024-01-16T08:01:44;9.57;;;6.60;;
16504;SDS011;8365;51.030;4.696;2024-01-16T08:04:14;11.60;;;6.77;;
16504;SDS011;8365;51.030;4.696;2024-01-16T08:06:45;10.07;;;5.83;;
16504;SDS011;8365;51.030;4.696;2024-01-16T08:09:18;11.07;;;6.23;;
16504;SDS011;8365;51.030;4.696;2024-01-16T08:11:49;8.70;;;6.17;;
16504;SDS011;8365;51.030;4.696;2024-01-16T08:14:20;15.40;;;6.80;;
16504;SDS011;8365;51.030;4.696;2024-01-16T08:16:50;14.43;;;6.30;;
16504;SDS011;8365;51.030;4.696;2024-01-16T08:19:21;11.93;;;6.60;;
16504;SDS011;8365;51.030;4.696;2024-01-16T08:21:51;12.03;;;6.00;;
16504;SDS011;8365;51.030;4.696;2024-01-16T08:24:22;13.33;;;6.87;;
16504;SDS011;8365;51.030;4.696;2024-01-16T08:26:52;12.63;;;6.70;;
16504;SDS011;8365;51.030;4.696;2024-01-16T08:29:23;9.93;;;6.40;;
16504;SDS011;8365;51.030;4.696;2024-01-16T08:31:54;10.27;;;6.67;;
16504;SDS011;8365;51.030;4.696;2024-01-16T08:34:24;12.97;;;6.50;;
16504;SDS011;8365;51.030;4.696;2024-01-16T08:36:55;10.57;;;6.33;;
16504;SDS011;8365;51.030;4.696;2024-01-16T08:39:29;13.33;;;7.27;;
16504;SDS011;8365;51.030;4.696;2024-01-16T08:42:03;12.57;;;6.97;;
16504;SDS011;8365;51.030;4.696;2024-01-16T08:44:33;14.00;;;8.43;;
16504;SDS011;8365;51.030;4.696;2024-01-16T08:47:04;10.30;;;6.87;;
16504;SDS011;8365;51.030;4.696;2024-01-16T08:49:36;10.50;;;6.53;;
16504;SDS011;8365;51.030;4.696;2024-01-16T08:52:08;14.13;;;7.37;;
16504;SDS011;8365;51.030;4.696;2024-01-16T08:54:38;11.57;;;7.03;;
16504;SDS011;8365;51.030;4.696;2024-01-16T08:57:09;8.23;;;5.97;;
16504;SDS011;8365;51.030;4.696;2024-01-16T08:59:43;9.40;;;6.80;;
16504;SDS011;8365;51.030;4.696;2024-01-16T09:02:13;9.60;;;6.77;;
16504;SDS011;8365;51.030;4.696;2024-01-16T09:04:44;12.13;;;6.37;;
16504;SDS011;8365;51.030;4.696;2024-01-16T09:07:16;11.73;;;6.23;;
16504;SDS011;8365;51.030;4.696;2024-01-16T09:09:46;13.17;;;6.90;;
16504;SDS011;8365;51.030;4.696;2024-01-16T09:12:17;11.27;;;6.60;;
16504;SDS011;8365;51.030;4.696;2024-01-16T09:14:50;10.57;;;6.63;;
16504;SDS011;8365;51.030;4.696;2024-01-16T09:17:20;10.60;;;6.60;;
16504;SDS011;8365;51.030;4.696;2024-01-16T09:19:51;11.40;;;7.13;;
16504;SDS011;8365;51.030;4.696;2024-01-16T09:22:21;9.33;;;7.13;;
16504;SDS011;8365;51.030;4.696;2024-01-16T09:24:52;9.00;;;6.60;;
16504;SDS011;8365;51.030;4.696;2024-01-16T09:27:22;12.53;;;6.40;;
16504;SDS011;8365;51.030;4.696;2024-01-16T09:29:55;12.17;;;7.00;;
16504;SDS011;8365;51.030;4.696;2024-01-16T09:32:26;12.20;;;6.87;;
16504;SDS011;8365;51.030;4.696;2024-01-16T09:34:56;10.27;;;6.93;;
16504;SDS011;8365;51.030;4.696;2024-01-16T09:37:28;11.57;;;7.07;;
16504;SDS011;8365;51.030;4.696;2024-01-16T09:39:58;11.47;;;6.33;;
16504;SDS011;8365;51.030;4.696;2024-01-16T09:42:29;11.70;;;5.83;;
16504;SDS011;8365;51.030;4.696;2024-01-16T09:45:02;10.30;;;6.20;;
16504;SDS011;8365;51.030;4.696;2024-01-16T09:47:33;11.03;;;6.00;;
16504;SDS011;8365;51.030;4.696;2024-01-16T09:50:04;8.80;;;5.97;;
16504;SDS011;8365;51.030;4.696;2024-01-16T09:52:35;8.67;;;5.93;;
16504;SDS011;8365;51.030;4.696;2024-01-16T09:55:06;8.53;;;6.03;;
16504;SDS011;8365;51.030;4.696;2024-01-16T09:57:37;9.93;;;6.67;;
16504;SDS011;8365;51.030;4.696;2024-01-16T10:00:14;8.10;;;5.30;;
16504;SDS011;8365;51.030;4.696;2024-01-16T10:02:46;9.53;;;5.53;;
16504;SDS011;8365;51.030;4.696;2024-01-16T10:05:16;8.73;;;5.00;;
16504;SDS011;8365;51.030;4.696;2024-01-16T10:07:50;8.37;;;5.63;;
16504;SDS011;8365;51.030;4.696;2024-01-16T10:10:22;7.97;;;4.93;;
16504;SDS011;8365;51.030;4.696;2024-01-16T10:12:52;10.00;;;6.27;;
16504;SDS011;8365;51.030;4.696;2024-01-16T10:15:26;8.70;;;5.90;;
16504;SDS011;8365;51.030;4.696;2024-01-16T10:17:56;10.90;;;6.20;;
16504;SDS011;8365;51.030;4.696;2024-01-16T10:20:32;7.77;;;5.20;;
16504;SDS011;8365;51.030;4.696;2024-01-16T10:23:04;8.10;;;5.97;;
16504;SDS011;8365;51.030;4.696;2024-01-16T10:25:34;8.53;;;6.20;;
16504;SDS011;8365;51.030;4.696;2024-01-16T10:28:07;9.13;;;5.50;;
16504;SDS011;8365;51.030;4.696;2024-01-16T10:30:41;8.07;;;4.67;;
16504;SDS011;8365;51.030;4.696;2024-01-16T10:33:12;8.60;;;4.80;;
16504;SDS011;8365;51.030;4.696;2024-01-16T10:35:46;10.37;;;5.57;;
16504;SDS011;8365;51.030;4.696;2024-01-16T10:38:20;9.43;;;5.50;;
16504;SDS011;8365;51.030;4.696;2024-01-16T10:41:05;7.70;;;4.77;;
16504;SDS011;8365;51.030;4.696;2024-01-16T10:43:36;6.63;;;4.93;;
16504;SDS011;8365;51.030;4.696;2024-01-16T10:46:16;8.33;;;5.13;;
16504;SDS011;8365;51.030;4.696;2024-01-16T10:49:00;7.03;;;5.03;;
16504;SDS011;8365;51.030;4.696;2024-01-16T10:51:34;6.13;;;4.80;;
16504;SDS011;8365;51.030;4.696;2024-01-16T10:54:05;7.63;;;5.07;;
16504;SDS011;8365;51.030;4.696;2024-01-16T10:56:38;7.70;;;4.70;;
16504;SDS011;8365;51.030;4.696;2024-01-16T10:59:16;7.53;;;4.70;;
16504;SDS011;8365;51.030;4.696;2024-01-16T11:01:54;7.97;;;4.90;;
16504;SDS011;8365;51.030;4.696;2024-01-16T11:04:28;7.10;;;4.80;;
16504;SDS011;8365;51.030;4.696;2024-01-16T11:07:00;9.30;;;5.30;;
16504;SDS011;8365;51.030;4.696;2024-01-16T11:09:34;7.30;;;4.70;;
16504;SDS011;8365;51.030;4.696;2024-01-16T11:12:05;6.17;;;4.80;;
16504;SDS011;8365;51.030;4.696;2024-01-16T11:14:36;7.13;;;5.20;;
16504;SDS011;8365;51.030;4.696;2024-01-16T11:17:07;8.13;;;4.60;;
16504;SDS011;8365;51.030;4.696;2024-01-16T11:19:42;5.80;;;4.17;;
16504;SDS011;8365;51.030;4.696;2024-01-16T11:22:13;6.63;;;4.90;;
16504;SDS011;8365;51.030;4.696;2024-01-16T11:24:45;12.40;;;7.03;;
16504;SDS011;8365;51.030;4.696;2024-01-16T11:27:22;8.63;;;5.20;;
16504;SDS011;8365;51.030;4.696;2024-01-16T11:29:55;8.77;;;5.00;;
16504;SDS011;8365;51.030;4.696;2024-01-16T11:32:36;6.57;;;4.90;;
16504;SDS011;8365;51.030;4.696;2024-01-16T11:35:08;6.10;;;3.60;;
16504;SDS011;8365;51.030;4.696;2024-01-16T11:37:39;8.13;;;4.57;;
16504;SDS011;8365;51.030;4.696;2024-01-16T11:42:51;8.73;;;4.50;;
16504;SDS011;8365;51.030;4.696;2024-01-16T11:50:40;6.87;;;4.80;;
16504;SDS011;8365;51.030;4.696;2024-01-16T11:53:11;8.17;;;4.67;;
16504;SDS011;8365;51.030;4.696;2024-01-16T12:01:28;8.57;;;5.63;;
16504;SDS011;8365;51.030;4.696;2024-01-16T12:04:03;8.57;;;4.03;;
16504;SDS011;8365;51.030;4.696;2024-01-16T12:06:39;9.17;;;3.60;;
16504;SDS011;8365;51.030;4.696;2024-01-16T12:09:13;5.93;;;3.57;;
16504;SDS011;8365;51.030;4.696;2024-01-16T12:11:44;5.47;;;4.00;;
16504;SDS011;8365;51.030;4.696;2024-01-16T12:14:32;8.10;;;4.00;;
16504;SDS011;8365;51.030;4.696;2024-01-16T12:17:13;6.83;;;3.43;;
16504;SDS011;8365;51.030;4.696;2024-01-16T12:19:43;5.80;;;3.43;;
16504;SDS011;8365;51.030;4.696;2024-01-16T12:22:14;7.23;;;4.00;;
16504;SDS011;8365;51.030;4.696;2024-01-16T12:24:46;5.93;;;3.93;;
16504;SDS011;8365;51.030;4.696;2024-01-16T12:27:17;5.50;;;3.77;;
16504;SDS011;8365;51.030;4.696;2024-01-16T12:29:47;5.60;;;3.47;;
16504;SDS011;8365;51.030;4.696;2024-01-16T12:32:21;5.63;;;3.40;;
16504;SDS011;8365;51.030;4.696;2024-01-16T12:34:52;5.70;;;3.30;;
16504;SDS011;8365;51.030;4.696;2024-01-16T12:37:22;7.67;;;3.97;;
16504;SDS011;8365;51.030;4.696;2024-01-16T12:39:53;5.03;;;3.73;;
16504;SDS011;8365;51.030;4.696;2024-01-16T12:42:23;6.00;;;3.80;;
16504;SDS011;8365;51.030;4.696;2024-01-16T12:44:54;9.77;;;4.23;;
16504;SDS011;8365;51.030;4.696;2024-01-16T12:47:25;7.67;;;4.10;;
16504;SDS011;8365;51.030;4.696;2024-01-16T12:49:58;7.47;;;3.70;;
16504;SDS011;8365;51.030;4.696;2024-01-16T12:52:29;6.87;;;3.47;;
16504;SDS011;8365;51.030;4.696;2024-01-16T12:55:00;11.77;;;6.73;;
16504;SDS011;8365;51.030;4.696;2024-01-16T12:57:31;7.03;;;4.40;;
16504;SDS011;8365;51.030;4.696;2024-01-16T13:00:19;9.00;;;4.67;;
16504;SDS011;8365;51.030;4.696;2024-01-16T13:02:51;8.27;;;4.10;;
16504;SDS011;8365;51.030;4.696;2024-01-16T13:05:22;8.53;;;5.13;;
16504;SDS011;8365;51.030;4.696;2024-01-16T13:07:59;5.50;;;3.93;;
16504;SDS011;8365;51.030;4.696;2024-01-16T13:10:33;4.93;;;3.60;;
16504;SDS011;8365;51.030;4.696;2024-01-16T13:15:44;5.30;;;3.97;;
16504;SDS011;8365;51.030;4.696;2024-01-16T13:18:22;5.50;;;4.20;;
16504;SDS011;8365;51.030;4.696;2024-01-16T13:20:55;7.40;;;3.47;;
16504;SDS011;8365;51.030;4.696;2024-01-16T13:23:27;5.30;;;3.87;;
16504;SDS011;8365;51.030;4.696;2024-01-16T13:26:00;5.00;;;3.07;;
16504;SDS011;8365;51.030;4.696;2024-01-16T13:28:34;6.03;;;3.43;;
16504;SDS011;8365;51.030;4.696;2024-01-16T13:31:05;6.30;;;3.53;;
16504;SDS011;8365;51.030;4.696;2024-01-16T13:33:35;7.17;;;4.07;;
16504;SDS011;8365;51.030;4.696;2024-01-16T13:36:06;4.47;;;3.20;;
16504;SDS011;8365;51.030;4.696;2024-01-16T13:38:37;6.17;;;3.40;;
16504;SDS011;8365;51.030;4.696;2024-01-16T13:41:08;6.90;;;3.70;;
16504;SDS011;8365;51.030;4.696;2024-01-16T13:43:38;6.43;;;4.27;;
16504;SDS011;8365;51.030;4.696;2024-01-16T13:46:08;5.83;;;3.30;;
16504;SDS011;8365;51.030;4.696;2024-01-16T13:48:46;4.57;;;3.30;;
16504;SDS011;8365;51.030;4.696;2024-01-16T13:51:19;11.00;;;4.17;;
16504;SDS011;8365;51.030;4.696;2024-01-16T13:53:49;7.90;;;4.10;;
16504;SDS011;8365;51.030;4.696;2024-01-16T13:56:20;5.27;;;3.87;;
16504;SDS011;8365;51.030;4.696;2024-01-16T13:58:51;9.03;;;4.17;;
16504;SDS011;8365;51.030;4.696;2024-01-16T14:01:21;6.10;;;4.20;;
16504;SDS011;8365;51.030;4.696;2024-01-16T14:03:52;6.87;;;4.20;;
16504;SDS011;8365;51.030;4.696;2024-01-16T14:06:22;6.67;;;3.73;;
16504;SDS011;8365;51.030;4.696;2024-01-16T14:08:53;10.20;;;4.73;;
16504;SDS011;8365;51.030;4.696;2024-01-16T14:11:23;5.07;;;4.10;;
16504;SDS011;8365;51.030;4.696;2024-01-16T14:13:53;6.47;;;3.90;;
16504;SDS011;8365;51.030;4.696;2024-01-16T14:16:27;5.67;;;4.00;;
16504;SDS011;8365;51.030;4.696;2024-01-16T14:18:58;7.87;;;3.90;;
16504;SDS011;8365;51.030;4.696;2024-01-16T14:21:29;6.87;;;3.90;;
16504;SDS011;8365;51.030;4.696;2024-01-16T14:24:00;9.60;;;4.30;;
16504;SDS011;8365;51.030;4.696;2024-01-16T14:26:30;6.97;;;4.67;;
16504;SDS011;8365;51.030;4.696;2024-01-16T14:29:01;13.67;;;6.47;;
16504;SDS011;8365;51.030;4.696;2024-01-16T14:31:31;5.63;;;3.83;;
16504;SDS011;8365;51.030;4.696;2024-01-16T14:34:02;11.50;;;4.53;;
16504;SDS011;8365;51.030;4.696;2024-01-16T14:36:33;7.30;;;5.10;;
16504;SDS011;8365;51.030;4.696;2024-01-16T14:39:04;13.70;;;10.20;;
16504;SDS011;8365;51.030;4.696;2024-01-16T14:41:35;8.77;;;5.03;;
16504;SDS011;8365;51.030;4.696;2024-01-16T14:44:08;5.87;;;4.40;;
16504;SDS011;8365;51.030;4.696;2024-01-16T14:46:40;9.20;;;4.80;;
16504;SDS011;8365;51.030;4.696;2024-01-16T14:49:13;8.43;;;4.43;;
16504;SDS011;8365;51.030;4.696;2024-01-16T14:51:43;6.87;;;4.30;;
16504;SDS011;8365;51.030;4.696;2024-01-16T14:54:14;8.80;;;4.73;;
16504;SDS011;8365;51.030;4.696;2024-01-16T14:56:44;8.63;;;5.67;;
16504;SDS011;8365;51.030;4.696;2024-01-16T14:59:15;7.73;;;5.53;;
16504;SDS011;8365;51.030;4.696;2024-01-16T15:01:45;8.20;;;4.90;;
16504;SDS011;8365;51.030;4.696;2024-01-16T15:04:16;11.43;;;5.37;;
16504;SDS011;8365;51.030;4.696;2024-01-16T15:06:46;8.77;;;5.60;;
16504;SDS011;8365;51.030;4.696;2024-01-16T15:09:17;14.90;;;9.20;;
16504;SDS011;8365;51.030;4.696;2024-01-16T15:11:47;8.90;;;6.73;;
16504;SDS011;8365;51.030;4.696;2024-01-16T15:14:18;14.93;;;6.73;;
16504;SDS011;8365;51.030;4.696;2024-01-16T15:16:50;7.80;;;5.17;;
16504;SDS011;8365;51.030;4.696;2024-01-16T15:19:21;8.70;;;4.77;;
16504;SDS011;8365;51.030;4.696;2024-01-16T15:21:51;9.90;;;6.07;;
16504;SDS011;8365;51.030;4.696;2024-01-16T15:24:24;13.13;;;4.97;;
16504;SDS011;8365;51.030;4.696;2024-01-16T15:27:00;13.17;;;4.77;;
16504;SDS011;8365;51.030;4.696;2024-01-16T15:29:33;10.73;;;7.30;;
16504;SDS011;8365;51.030;4.696;2024-01-16T15:32:04;9.20;;;7.00;;
16504;SDS011;8365;51.030;4.696;2024-01-16T15:34:36;9.57;;;6.43;;
16504;SDS011;8365;51.030;4.696;2024-01-16T15:37:07;9.37;;;4.40;;